Time;durP1;ratioP1;P1;durP2;ratioP2;P2;SDS_P1;SDS_P2;PMS_P1;PMS_P2;Temp;Humidity;BMP_temperature;BMP_pressure;BME280_temperature;BME280_humidity;BME280_pressure;Samples;Min_cycle;Max_cycle;Signal;HPM_P1;HPM_P2
2022/06/14 00:00:53;;;;;;;9.07;2.78;;;;;;;;;;5026672;28;20029;-78
2022/06/14 00:02:23;;;;;;;7.82;2.70;;;;;;;;;;5016133;28;20064;-78
2022/06/14 00:04:50;;;;;;;9.00;2.67;;;;;;;;;;5031872;28;20135;-78
2022/06/14 00:07:16;;;;;;;6.28;2.20;;;;;;;;;;5025118;28;20508;-78
2022/06/14 00:09:43;;;;;;;7.50;2.00;;;;;;;;;;5029593;28;20471;-78
2022/06/14 00:12:09;;;;;;;8.25;1.90;;;;;;;;;;5030473;28;20829;-78
2022/06/14 00:14:35;;;;;;;6.32;1.95;;;;;;;;;;5031523;28;20037;-78
2022/06/14 00:17:01;;;;;;;7.10;1.98;;;;;;;;;;5030720;28;20029;-78
2022/06/14 00:19:27;;;;;;;9.02;1.75;;;;;;;;;;5030642;28;20049;-78
2022/06/14 00:21:56;;;;;;;6.88;1.48;;;;;;;;;;5030966;28;20731;-78
2022/06/14 00:24:23;;;;;;;6.43;1.65;;;;;;;;;;5021698;28;20037;-78
2022/06/14 00:26:50;;;;;;;6.50;1.42;;;;;;;;;;5030921;28;20044;-78
2022/06/14 00:29:16;;;;;;;8.65;1.52;;;;;;;;;;5028354;28;20460;-78
2022/06/14 00:31:42;;;;;;;6.57;1.48;;;;;;;;;;5017566;28;20034;-78
2022/06/14 00:34:08;;;;;;;5.82;1.55;;;;;;;;;;5022089;28;20067;-78
2022/06/14 00:36:34;;;;;;;6.22;1.67;;;;;;;;;;5026922;28;20041;-78
2022/06/14 00:39:03;;;;;;;6.38;1.50;;;;;;;;;;5025159;28;20898;-78
2022/06/14 00:41:36;;;;;;;7.47;2.22;;;;;;;;;;5021245;28;20117;-78
2022/06/14 00:44:03;;;;;;;6.53;1.70;;;;;;;;;;5030090;28;20037;-78
2022/06/14 00:46:52;;;;;;;6.35;1.63;;;;;;;;;;5029930;28;20043;-78
2022/06/14 00:49:20;;;;;;;3.60;1.40;;;;;;;;;;5030508;28;20096;-79
2022/06/14 00:51:53;;;;;;;4.00;1.60;;;;;;;;;;5023080;28;20034;-78
2022/06/14 00:54:23;;;;;;;5.93;1.65;;;;;;;;;;5025016;28;20040;-78
2022/06/14 00:56:58;;;;;;;7.85;2.33;;;;;;;;;;5028749;28;20033;-78
2022/06/14 00:59:27;;;;;;;11.48;3.55;;;;;;;;;;5027797;28;20037;-78
2022/06/14 01:01:56;;;;;;;11.95;5.97;;;;;;;;;;5029275;28;20391;-79
2022/06/14 01:04:24;;;;;;;20.50;12.15;;;;;;;;;;5019921;28;20041;-78
2022/06/14 01:07:01;;;;;;;25.35;16.08;;;;;;;;;;5029830;28;20030;-78
2022/06/14 01:09:34;;;;;;;23.17;12.00;;;;;;;;;;5030084;28;20030;-78
2022/06/14 01:12:01;;;;;;;23.73;12.85;;;;;;;;;;5024381;28;20134;-78
2022/06/14 01:14:33;;;;;;;23.67;13.50;;;;;;;;;;5029721;28;20111;-78
2022/06/14 01:16:59;;;;;;;;;;;;;;;;;;5026574;28;20025;-79
2022/06/14 01:19:26;;;;;;;23.75;13.15;;;;;;;;;;5017651;28;19924;-78
2022/06/14 01:21:53;;;;;;;20.67;11.70;;;;;;;;;;5028954;28;20851;-78
2022/06/14 01:24:21;;;;;;;18.77;11.63;;;;;;;;;;5020516;28;20036;-78
2022/06/14 01:26:47;;;;;;;16.15;9.48;;;;;;;;;;5021087;28;20033;-78
2022/06/14 01:29:13;;;;;;;15.57;9.32;;;;;;;;;;5021655;28;20030;-78
2022/06/14 01:31:39;;;;;;;14.88;8.43;;;;;;;;;;5028027;28;20063;-78
2022/06/14 01:34:08;;;;;;;12.95;7.22;;;;;;;;;;5029825;28;20037;-79
2022/06/14 01:36:37;;;;;;;13.27;6.45;;;;;;;;;;5023384;28;20522;-78
2022/06/14 01:39:05;;;;;;;18.27;6.85;;;;;;;;;;5017307;28;20104;-78
2022/06/14 01:42:07;;;;;;;13.35;5.95;;;;;;;;;;5027283;28;20470;-78
2022/06/14 01:44:36;;;;;;;15.73;7.50;;;;;;;;;;5006853;28;20133;-78
2022/06/14 01:47:14;;;;;;;12.60;6.53;;;;;;;;;;5005830;28;20052;-78
2022/06/14 01:52:52;;;;;;;10.82;6.30;;;;;;;;;;5026692;28;20084;-78
2022/06/14 01:55:37;;;;;;;17.10;6.18;;;;;;;;;;5027308;28;20068;-78
2022/06/14 01:58:10;;;;;;;17.27;5.88;;;;;;;;;;5043192;28;20036;-78
2022/06/14 02:00:39;;;;;;;13.27;4.60;;;;;;;;;;5021519;28;20037;-78
2022/06/14 02:06:21;;;;;;;15.07;4.57;;;;;;;;;;5024409;28;20044;-78
2022/06/14 02:08:51;;;;;;;15.55;3.75;;;;;;;;;;5018996;28;20043;-78
2022/06/14 02:11:27;;;;;;;7.75;3.17;;;;;;;;;;5029141;28;20038;-78
2022/06/14 02:14:00;;;;;;;9.00;3.45;;;;;;;;;;5024244;28;20506;-78
2022/06/14 02:16:46;;;;;;;12.60;4.15;;;;;;;;;;5032737;28;20069;-78
2022/06/14 02:19:14;;;;;;;12.43;4.95;;;;;;;;;;5013211;28;20179;-78
2022/06/14 02:21:46;;;;;;;13.60;4.93;;;;;;;;;;5031063;28;20124;-79
2022/06/14 02:24:15;;;;;;;10.77;4.40;;;;;;;;;;5028899;28;20116;-78
2022/06/14 02:26:44;;;;;;;14.77;5.00;;;;;;;;;;5033504;28;20494;-78
2022/06/14 02:29:16;;;;;;;10.80;5.15;;;;;;;;;;5031290;28;20583;-78
2022/06/14 02:31:45;;;;;;;12.80;3.97;;;;;;;;;;5032293;28;20041;-78
2022/06/14 02:34:14;;;;;;;12.50;3.83;;;;;;;;;;5020439;28;20025;-78
2022/06/14 02:36:47;;;;;;;12.98;3.60;;;;;;;;;;5028551;28;20046;-78
2022/06/14 02:39:16;;;;;;;11.98;3.95;;;;;;;;;;5022402;28;20498;-78
2022/06/14 02:41:55;;;;;;;7.20;2.95;;;;;;;;;;5028031;28;20591;-78
2022/06/14 02:44:24;;;;;;;7.72;3.42;;;;;;;;;;5026549;28;20038;-78
2022/06/14 02:46:53;;;;;;;7.63;3.55;;;;;;;;;;5028639;28;20957;-78
2022/06/14 02:49:37;;;;;;;11.55;3.72;;;;;;;;;;5017068;28;20073;-78
2022/06/14 02:52:15;;;;;;;11.45;3.70;;;;;;;;;;5022270;28;20056;-78
2022/06/14 02:55:01;;;;;;;7.60;3.38;;;;;;;;;;5029697;28;20033;-78
2022/06/14 02:57:33;;;;;;;12.85;3.70;;;;;;;;;;5002846;28;21043;-78
2022/06/14 03:00:22;;;;;;;9.25;4.18;;;;;;;;;;5019548;28;20058;-78
2022/06/14 03:02:48;;;;;;;9.00;3.88;;;;;;;;;;5025897;28;20054;-78
2022/06/14 03:05:29;;;;;;;6.68;3.17;;;;;;;;;;5021226;28;20029;-78
2022/06/14 03:07:59;;;;;;;10.07;3.40;;;;;;;;;;5030893;28;20033;-78
2022/06/14 03:10:30;;;;;;;11.52;2.85;;;;;;;;;;5032897;28;20044;-78
2022/06/14 03:13:03;;;;;;;5.75;2.38;;;;;;;;;;5031726;28;20029;-78
2022/06/14 03:15:41;;;;;;;6.53;2.40;;;;;;;;;;5032749;28;20387;-78
2022/06/14 03:18:20;;;;;;;6.72;2.13;;;;;;;;;;5023377;28;20104;-78
2022/06/14 03:20:56;;;;;;;6.78;1.95;;;;;;;;;;5031329;28;20483;-78
2022/06/14 03:23:25;;;;;;;8.85;2.17;;;;;;;;;;5020400;28;20090;-78
2022/06/14 03:25:54;;;;;;;7.35;1.95;;;;;;;;;;5032287;28;20034;-78
2022/06/14 03:28:23;;;;;;;6.20;1.90;;;;;;;;;;5025190;28;20812;-78
2022/06/14 03:31:04;;;;;;;5.60;2.00;;;;;;;;;;5032299;28;20033;-78
2022/06/14 03:33:35;;;;;;;9.15;2.28;;;;;;;;;;5028565;28;20141;-78
2022/06/14 03:36:01;;;;;;;5.90;1.90;;;;;;;;;;5032200;28;20087;-78
2022/06/14 03:38:36;;;;;;;8.50;1.90;;;;;;;;;;5020727;28;20326;-78
2022/06/14 03:41:03;;;;;;;10.68;2.08;;;;;;;;;;5025741;28;20120;-78
2022/06/14 03:43:30;;;;;;;8.20;2.30;;;;;;;;;;5015935;28;20111;-78
2022/06/14 03:46:19;;;;;;;6.53;2.38;;;;;;;;;;5021379;28;20048;-78
2022/06/14 03:48:47;;;;;;;8.90;2.45;;;;;;;;;;5028759;28;20052;-78
2022/06/14 03:51:16;;;;;;;8.77;2.72;;;;;;;;;;5020498;28;20041;-78
2022/06/14 03:53:42;;;;;;;8.70;2.85;;;;;;;;;;5032280;28;20624;-78
2022/06/14 03:56:20;;;;;;;5.78;2.00;;;;;;;;;;5030139;28;20045;-78
2022/06/14 03:59:06;;;;;;;8.65;2.15;;;;;;;;;;5012741;28;20049;-79
2022/06/14 04:01:37;;;;;;;6.65;2.08;;;;;;;;;;5026238;28;20802;-78
2022/06/14 04:04:10;;;;;;;7.13;2.15;;;;;;;;;;5031260;28;20040;-78
2022/06/14 04:06:45;;;;;;;6.35;2.13;;;;;;;;;;5030083;28;20604;-78
2022/06/14 04:09:30;;;;;;;7.32;2.13;;;;;;;;;;5031585;28;20029;-78
2022/06/14 04:12:01;;;;;;;5.20;1.92;;;;;;;;;;5026770;28;20466;-78
2022/06/14 04:14:46;;;;;;;9.13;2.80;;;;;;;;;;5029038;28;20033;-78
2022/06/14 04:17:19;;;;;;;5.65;1.98;;;;;;;;;;5030859;28;20049;-78
2022/06/14 04:20:04;;;;;;;5.47;1.85;;;;;;;;;;5027769;28;20837;-78
2022/06/14 04:22:36;;;;;;;11.25;2.53;;;;;;;;;;5024246;28;20056;-78
2022/06/14 04:25:07;;;;;;;6.97;2.47;;;;;;;;;;5024525;28;20038;-78
2022/06/14 04:27:40;;;;;;;9.15;2.70;;;;;;;;;;5032167;28;20026;-78
2022/06/14 04:30:05;;;;;;;;;;;;;;;;;;5031501;28;20075;-78
2022/06/14 04:32:34;;;;;;;9.10;2.58;;;;;;;;;;5031163;28;20442;-78
2022/06/14 04:35:11;;;;;;;10.10;2.25;;;;;;;;;;5029961;28;20033;-78
2022/06/14 04:37:41;;;;;;;8.38;2.42;;;;;;;;;;5013590;28;20037;-78
2022/06/14 04:40:10;;;;;;;7.78;2.63;;;;;;;;;;5026187;28;20068;-78
2022/06/14 04:42:43;;;;;;;9.63;3.42;;;;;;;;;;5027981;28;20049;-78
2022/06/14 04:45:09;;;;;;;9.43;3.00;;;;;;;;;;5022923;28;20099;-78
2022/06/14 04:47:40;;;;;;;9.55;3.15;;;;;;;;;;5024312;28;20095;-78
2022/06/14 04:50:13;;;;;;;12.30;2.60;;;;;;;;;;5020304;28;20037;-78
2022/06/14 04:52:45;;;;;;;10.15;2.95;;;;;;;;;;5027529;28;20037;-78
2022/06/14 04:55:21;;;;;;;10.57;3.03;;;;;;;;;;5029824;28;20057;-78
2022/06/14 04:57:50;;;;;;;9.95;2.85;;;;;;;;;;5019642;28;20132;-78
2022/06/14 05:00:18;;;;;;;15.40;4.28;;;;;;;;;;5019092;28;20056;-77
2022/06/14 05:02:46;;;;;;;25.10;9.07;;;;;;;;;;5030503;28;20033;-78
2022/06/14 05:05:18;;;;;;;24.02;8.52;;;;;;;;;;5024164;28;20053;-78
2022/06/14 05:07:44;;;;;;;;;;;;;;;;;;5029596;28;20033;-78
2022/06/14 05:10:19;;;;;;;21.25;8.05;;;;;;;;;;5021377;28;19924;-78
2022/06/14 05:12:50;;;;;;;23.35;6.50;;;;;;;;;;5026076;28;20072;-78
2022/06/14 05:15:17;;;;;;;19.05;6.07;;;;;;;;;;5030632;28;20057;-78
2022/06/14 05:17:45;;;;;;;14.75;5.03;;;;;;;;;;5019386;28;20030;-78
2022/06/14 05:20:19;;;;;;;14.75;4.90;;;;;;;;;;5017635;28;20037;-78
2022/06/14 05:22:57;;;;;;;15.20;5.07;;;;;;;;;;5029301;28;20033;-78
2022/06/14 05:25:23;;;;;;;12.00;4.43;;;;;;;;;;5018147;28;20479;-78
2022/06/14 05:28:02;;;;;;;9.35;3.25;;;;;;;;;;5012889;28;20022;-78
2022/06/14 05:30:40;;;;;;;10.35;3.53;;;;;;;;;;5024806;28;20038;-79
2022/06/14 05:33:08;;;;;;;11.38;3.70;;;;;;;;;;5017177;28;20029;-79
2022/06/14 05:35:46;;;;;;;9.90;3.50;;;;;;;;;;5026982;28;20041;-79
2022/06/14 05:38:15;;;;;;;8.70;3.08;;;;;;;;;;5023509;28;20731;-78
2022/06/14 05:40:57;;;;;;;9.73;3.33;;;;;;;;;;5025014;28;20129;-79
2022/06/14 05:43:29;;;;;;;8.38;3.17;;;;;;;;;;5021796;28;20124;-78
2022/06/14 05:46:16;;;;;;;12.38;3.97;;;;;;;;;;5024771;28;20037;-78
2022/06/14 05:48:50;;;;;;;14.48;4.28;;;;;;;;;;5026227;28;20048;-79
2022/06/14 05:51:18;;;;;;;12.20;4.57;;;;;;;;;;5025730;28;20044;-78
2022/06/14 05:53:44;;;;;;;9.70;4.35;;;;;;;;;;5029911;28;20099;-78
2022/06/14 05:56:14;;;;;;;8.75;3.58;;;;;;;;;;5028702;28;20625;-78
2022/06/14 05:58:44;;;;;;;12.82;5.43;;;;;;;;;;5018776;28;20258;-79
2022/06/14 06:01:12;;;;;;;14.27;3.65;;;;;;;;;;5022747;28;20030;-78
2022/06/14 06:03:44;;;;;;;12.43;3.80;;;;;;;;;;5012687;28;20045;-78
2022/06/14 06:06:19;;;;;;;10.68;3.20;;;;;;;;;;5021427;28;20072;-79
2022/06/14 06:08:50;;;;;;;10.95;3.53;;;;;;;;;;5025941;28;20041;-78
2022/06/14 06:11:32;;;;;;;11.90;3.90;;;;;;;;;;5024364;28;20136;-78
2022/06/14 06:13:58;;;;;;;;;;;;;;;;;;5023761;28;20025;-78
2022/06/14 06:16:32;;;;;;;13.55;4.60;;;;;;;;;;5027751;28;20382;-78
2022/06/14 06:19:10;;;;;;;13.75;4.07;;;;;;;;;;5026481;28;20063;-79
2022/06/14 06:21:42;;;;;;;13.93;4.07;;;;;;;;;;5023772;28;20076;-79
2022/06/14 06:24:12;;;;;;;11.93;3.65;;;;;;;;;;5024291;28;20029;-78
2022/06/14 06:26:40;;;;;;;13.13;3.65;;;;;;;;;;5027180;28;20037;-78
2022/06/14 06:29:15;;;;;;;11.77;4.03;;;;;;;;;;5019310;28;20026;-78
2022/06/14 06:31:43;;;;;;;16.95;3.55;;;;;;;;;;5021354;28;20034;-78
2022/06/14 06:34:11;;;;;;;12.30;2.92;;;;;;;;;;5028936;28;20034;-78
2022/06/14 06:36:44;;;;;;;10.50;3.60;;;;;;;;;;5026970;28;20034;-78
2022/06/14 06:39:16;;;;;;;7.40;2.80;;;;;;;;;;5026649;28;20284;-78
2022/06/14 06:41:51;;;;;;;;;;;;;;;;;;5040008;28;20639;-78
2022/06/14 06:44:36;;;;;;;8.55;2.25;;;;;;;;;;5018451;28;19959;-78
2022/06/14 06:47:06;;;;;;;7.28;2.38;;;;;;;;;;5020117;28;20033;-78
2022/06/14 06:49:52;;;;;;;12.95;2.90;;;;;;;;;;5020954;28;20128;-78
2022/06/14 06:52:22;;;;;;;7.75;2.97;;;;;;;;;;5023316;28;20046;-78
2022/06/14 06:54:51;;;;;;;10.98;2.95;;;;;;;;;;5020753;28;20040;-78
2022/06/14 06:57:20;;;;;;;10.52;3.30;;;;;;;;;;5015968;28;20045;-78
2022/06/14 06:59:47;;;;;;;7.55;3.38;;;;;;;;;;5025382;28;20029;-78
2022/06/14 07:02:16;;;;;;;8.07;3.15;;;;;;;;;;5029438;28;20120;-78
2022/06/14 07:07:27;;;;;;;10.25;2.88;;;;;;;;;;5022494;28;20052;-78
2022/06/14 07:09:53;;;;;;;10.75;3.05;;;;;;;;;;5032183;28;20458;-78
2022/06/14 07:12:35;;;;;;;7.68;2.80;;;;;;;;;;5023809;28;20041;-78
2022/06/14 07:15:01;;;;;;;9.52;3.45;;;;;;;;;;5026807;28;20088;-78
2022/06/14 07:17:30;;;;;;;10.20;2.97;;;;;;;;;;5024774;28;20419;-78
2022/06/14 07:20:11;;;;;;;10.10;2.75;;;;;;;;;;5027761;28;20041;-78
2022/06/14 07:22:48;;;;;;;9.65;2.58;;;;;;;;;;5029428;28;20112;-78
2022/06/14 07:25:17;;;;;;;7.18;2.15;;;;;;;;;;5032068;28;20041;-78
2022/06/14 07:27:53;;;;;;;9.18;2.90;;;;;;;;;;5023461;28;20026;-78
2022/06/14 07:30:21;;;;;;;10.75;2.70;;;;;;;;;;5031066;28;20030;-78
2022/06/14 07:32:50;;;;;;;7.28;2.58;;;;;;;;;;5027406;28;20044;-78
2022/06/14 07:35:18;;;;;;;13.30;3.63;;;;;;;;;;5019773;28;20034;-78
2022/06/14 07:37:48;;;;;;;9.35;2.58;;;;;;;;;;5022868;28;20026;-78
2022/06/14 07:40:26;;;;;;;7.68;2.50;;;;;;;;;;5027050;28;20033;-78
2022/06/14 07:42:55;;;;;;;11.23;3.08;;;;;;;;;;5023680;28;20037;-78
2022/06/14 07:45:28;;;;;;;9.75;3.03;;;;;;;;;;5019130;28;20488;-78
2022/06/14 07:48:03;;;;;;;11.02;3.03;;;;;;;;;;5018357;28;20084;-78
2022/06/14 07:50:32;;;;;;;9.43;2.92;;;;;;;;;;5025720;28;20072;-79
2022/06/14 07:53:03;;;;;;;9.45;2.80;;;;;;;;;;5027095;28;20022;-78
2022/06/14 07:55:38;;;;;;;9.18;2.17;;;;;;;;;;5027465;28;20576;-78
2022/06/14 07:58:08;;;;;;;7.78;2.25;;;;;;;;;;5029301;28;20025;-78
2022/06/14 08:03:23;;;;;;;6.50;2.30;;;;;;;;;;5029481;28;20044;-78
2022/06/14 08:05:50;;;;;;;9.20;2.70;;;;;;;;;;5019847;28;20033;-79
2022/06/14 08:08:20;;;;;;;6.50;2.30;;;;;;;;;;5019531;28;20410;-78
2022/06/14 08:10:49;;;;;;;5.97;2.13;;;;;;;;;;5027035;28;20387;-78
2022/06/14 08:13:20;;;;;;;13.27;2.10;;;;;;;;;;5027945;28;20418;-78
2022/06/14 08:15:52;;;;;;;6.47;2.28;;;;;;;;;;5030745;28;20061;-79
2022/06/14 08:18:30;;;;;;;8.43;2.28;;;;;;;;;;5022162;28;20061;-78
2022/06/14 08:20:59;;;;;;;7.78;2.05;;;;;;;;;;5025582;28;20048;-78
2022/06/14 08:23:58;;;;;;;9.20;2.22;;;;;;;;;;5030879;28;20112;-78
2022/06/14 08:26:39;;;;;;;9.38;2.00;;;;;;;;;;5002118;28;20037;-79
2022/06/14 08:29:18;;;;;;;7.82;1.77;;;;;;;;;;5031092;28;20064;-78
2022/06/14 08:32:23;;;;;;;6.43;1.80;;;;;;;;;;5014410;28;20060;-78
2022/06/14 08:35:15;;;;;;;5.65;2.28;;;;;;;;;;4987954;28;20108;-78
2022/06/14 08:37:41;;;;;;;;;;;;;;;;;;4982322;28;20097;-78
2022/06/14 08:40:10;;;;;;;5.53;1.98;;;;;;;;;;5011073;28;19912;-78
2022/06/14 08:42:42;;;;;;;6.07;2.08;;;;;;;;;;5026627;28;20037;-78
2022/06/14 08:45:08;;;;;;;6.10;1.60;;;;;;;;;;5032641;28;20041;-78
2022/06/14 08:47:43;;;;;;;5.47;1.60;;;;;;;;;;5014346;28;20042;-79
2022/06/14 08:50:23;;;;;;;12.50;2.55;;;;;;;;;;5030773;28;20049;-79
2022/06/14 08:52:55;;;;;;;6.88;2.00;;;;;;;;;;5024096;28;20492;-79
2022/06/14 08:55:40;;;;;;;7.90;2.20;;;;;;;;;;5022710;28;20033;-78
2022/06/14 08:58:24;;;;;;;9.63;1.70;;;;;;;;;;5023468;28;20037;-78
2022/06/14 09:01:09;;;;;;;7.97;2.20;;;;;;;;;;5028783;28;20120;-78
2022/06/14 09:03:44;;;;;;;9.05;2.15;;;;;;;;;;5022031;28;20516;-79
2022/06/14 09:06:13;;;;;;;7.00;1.75;;;;;;;;;;5017624;28;20030;-78
2022/06/14 09:08:42;;;;;;;10.15;2.17;;;;;;;;;;5024640;28;20084;-78
2022/06/14 09:11:27;;;;;;;10.13;1.98;;;;;;;;;;5025038;28;20109;-78
2022/06/14 09:14:11;;;;;;;12.05;1.95;;;;;;;;;;5026134;28;20041;-78
2022/06/14 09:16:58;;;;;;;6.55;1.63;;;;;;;;;;5025370;28;20033;-78
2022/06/14 09:19:37;;;;;;;12.02;1.83;;;;;;;;;;5017033;28;20042;-78
2022/06/14 09:22:22;;;;;;;7.70;1.70;;;;;;;;;;5023292;28;20393;-78
2022/06/14 09:24:48;;;;;;;7.30;2.20;;;;;;;;;;5021214;28;20038;-78
2022/06/14 09:27:30;;;;;;;5.22;1.50;;;;;;;;;;5024019;28;20038;-79
2022/06/14 09:30:15;;;;;;;6.25;1.60;;;;;;;;;;5022761;28;20021;-79
2022/06/14 09:35:47;;;;;;;8.52;1.55;;;;;;;;;;5018917;28;20065;-79
2022/06/14 09:38:45;;;;;;;6.70;1.83;;;;;;;;;;5026058;28;20034;-78
2022/06/14 09:41:23;;;;;;;8.13;1.98;;;;;;;;;;5008718;28;20864;-78
2022/06/14 09:44:08;;;;;;;8.50;1.40;;;;;;;;;;5027844;28;20036;-78
2022/06/14 09:46:44;;;;;;;10.35;1.85;;;;;;;;;;5019086;28;20033;-78
2022/06/14 09:49:25;;;;;;;9.00;1.88;;;;;;;;;;5019731;28;20044;-78
2022/06/14 09:52:10;;;;;;;4.65;1.35;;;;;;;;;;5018385;28;20045;-79
2022/06/14 09:54:51;;;;;;;8.43;1.67;;;;;;;;;;5018356;28;20029;-78
2022/06/14 09:57:29;;;;;;;7.95;1.73;;;;;;;;;;5022010;28;20041;-79
2022/06/14 09:59:55;;;;;;;6.63;1.60;;;;;;;;;;5026230;28;20037;-78
2022/06/14 10:02:34;;;;;;;6.35;1.63;;;;;;;;;;5024453;28;20085;-79
2022/06/14 10:05:00;;;;;;;9.80;1.58;;;;;;;;;;5024240;28;20129;-78
2022/06/14 10:07:36;;;;;;;6.82;1.75;;;;;;;;;;5020507;28;20029;-79
2022/06/14 10:10:10;;;;;;;7.22;1.58;;;;;;;;;;5019771;28;20051;-79
2022/06/14 10:12:36;;;;;;;6.55;1.75;;;;;;;;;;5020724;28;20069;-79
2022/06/14 10:15:15;;;;;;;8.95;1.80;;;;;;;;;;5027271;28;20064;-79
2022/06/14 10:18:04;;;;;;;3.35;1.13;;;;;;;;;;5017148;28;20046;-78
2022/06/14 10:20:35;;;;;;;4.65;1.52;;;;;;;;;;5018316;28;20030;-78
2022/06/14 10:23:01;;;;;;;;;;;;;;;;;;5025274;28;20038;-78
2022/06/14 10:25:32;;;;;;;5.07;1.23;;;;;;;;;;5023083;28;20602;-79
2022/06/14 10:28:14;;;;;;;6.33;1.60;;;;;;;;;;5023398;28;20034;-79
2022/06/14 10:30:46;;;;;;;6.85;1.30;;;;;;;;;;5015274;28;20038;-79
2022/06/14 10:33:20;;;;;;;7.20;1.10;;;;;;;;;;5023044;28;20065;-79
2022/06/14 10:35:53;;;;;;;9.05;1.40;;;;;;;;;;5025443;28;20069;-78
2022/06/14 10:38:34;;;;;;;6.35;1.38;;;;;;;;;;5030370;28;20021;-78
2022/06/14 10:41:02;;;;;;;5.82;1.63;;;;;;;;;;5028860;28;20037;-78
2022/06/14 10:43:28;;;;;;;5.28;1.10;;;;;;;;;;5030501;28;20033;-79
2022/06/14 10:46:01;;;;;;;8.10;1.67;;;;;;;;;;5027160;28;20043;-78
2022/06/14 10:48:36;;;;;;;5.05;1.40;;;;;;;;;;5032079;28;20030;-79
2022/06/14 10:51:01;;;;;;;5.93;1.35;;;;;;;;;;5027045;28;20592;-79
2022/06/14 10:53:27;;;;;;;6.60;1.73;;;;;;;;;;5031924;28;20108;-79
2022/06/14 10:55:53;;;;;;;6.25;1.48;;;;;;;;;;5031511;28;20037;-79
2022/06/14 10:58:35;;;;;;;3.50;1.02;;;;;;;;;;5021479;28;20030;-79
2022/06/14 11:01:19;;;;;;;9.00;1.33;;;;;;;;;;5025216;28;20257;-79
2022/06/14 11:04:21;;;;;;;8.50;1.50;;;;;;;;;;5019852;28;20236;-79
2022/06/14 11:07:13;;;;;;;7.85;1.30;;;;;;;;;;5005983;28;20041;-78
2022/06/14 11:09:39;;;;;;;6.63;1.20;;;;;;;;;;4993300;28;20041;-79
2022/06/14 11:12:17;;;;;;;6.13;1.50;;;;;;;;;;5027233;28;20053;-78
2022/06/14 11:14:50;;;;;;;5.30;1.23;;;;;;;;;;5034323;28;20032;-79
2022/06/14 11:17:29;;;;;;;6.60;1.50;;;;;;;;;;5027172;28;20041;-79
2022/06/14 11:20:14;;;;;;;7.50;1.38;;;;;;;;;;5032564;28;20037;-79
2022/06/14 11:22:40;;;;;;;4.82;1.40;;;;;;;;;;5023311;28;20037;-79
2022/06/14 11:25:22;;;;;;;8.45;1.23;;;;;;;;;;5031276;28;20022;-79
2022/06/14 11:28:00;;;;;;;6.22;1.30;;;;;;;;;;5028962;28;20029;-79
2022/06/14 11:30:32;;;;;;;5.00;1.35;;;;;;;;;;5015556;28;20120;-79
2022/06/14 11:33:11;;;;;;;4.90;1.67;;;;;;;;;;5014931;28;20022;-78
2022/06/14 11:35:49;;;;;;;5.63;1.27;;;;;;;;;;5023014;28;20492;-79
2022/06/14 11:38:27;;;;;;;4.75;1.05;;;;;;;;;;5028790;28;20681;-79
2022/06/14 11:40:56;;;;;;;6.32;1.20;;;;;;;;;;5028636;28;20112;-79
2022/06/14 11:43:22;;;;;;;3.15;1.10;;;;;;;;;;5030099;28;20037;-79
2022/06/14 11:45:51;;;;;;;9.63;1.50;;;;;;;;;;5022774;28;20037;-79
2022/06/14 11:48:17;;;;;;;7.85;1.38;;;;;;;;;;5022733;28;20030;-78
2022/06/14 11:50:47;;;;;;;3.03;0.98;;;;;;;;;;5023079;28;20065;-79
2022/06/14 11:53:34;;;;;;;7.43;1.60;;;;;;;;;;5017443;28;20037;-78
2022/06/14 11:56:03;;;;;;;6.13;1.10;;;;;;;;;;5019317;28;20071;-78
2022/06/14 11:58:35;;;;;;;4.50;1.08;;;;;;;;;;5031534;28;20076;-79
2022/06/14 12:01:14;;;;;;;4.43;1.20;;;;;;;;;;5026307;28;20115;-79
2022/06/14 12:03:43;;;;;;;6.32;0.98;;;;;;;;;;5022547;28;20395;-79
2022/06/14 12:06:09;;;;;;;8.40;1.50;;;;;;;;;;5019578;28;20030;-79
2022/06/14 12:08:38;;;;;;;5.30;1.33;;;;;;;;;;5024180;28;20040;-79
2022/06/14 12:11:22;;;;;;;7.07;1.38;;;;;;;;;;5029049;28;20033;-79
2022/06/14 12:13:57;;;;;;;5.07;1.33;;;;;;;;;;5028391;28;20033;-79
2022/06/14 12:16:26;;;;;;;6.13;1.92;;;;;;;;;;5029833;28;20035;-80
2022/06/14 12:19:01;;;;;;;5.20;1.20;;;;;;;;;;5027838;28;20034;-79
2022/06/14 12:21:28;;;;;;;5.35;1.05;;;;;;;;;;5028284;28;20037;-79
2022/06/14 12:23:55;;;;;;;9.05;1.30;;;;;;;;;;5025826;28;20037;-79
2022/06/14 12:26:37;;;;;;;5.20;1.38;;;;;;;;;;5022593;28;20109;-79
2022/06/14 12:29:03;;;;;;;5.60;1.42;;;;;;;;;;5024429;28;20036;-78
2022/06/14 12:31:35;;;;;;;5.53;1.25;;;;;;;;;;5027976;28;20045;-78
2022/06/14 12:34:11;;;;;;;3.63;1.30;;;;;;;;;;5017722;28;20044;-79
2022/06/14 12:36:41;;;;;;;4.03;1.20;;;;;;;;;;5027412;28;20030;-79
2022/06/14 12:39:16;;;;;;;6.03;1.38;;;;;;;;;;5031329;28;20033;-79
2022/06/14 12:41:58;;;;;;;7.60;1.65;;;;;;;;;;5030241;28;20041;-79
2022/06/14 12:44:36;;;;;;;7.05;1.20;;;;;;;;;;5023971;28;20116;-79
2022/06/14 12:47:04;;;;;;;7.35;1.40;;;;;;;;;;5015936;28;20057;-79
2022/06/14 12:49:43;;;;;;;4.35;1.27;;;;;;;;;;5025935;28;20038;-79
2022/06/14 12:52:15;;;;;;;4.55;1.20;;;;;;;;;;5020423;28;20037;-79
2022/06/14 12:54:53;;;;;;;6.00;1.20;;;;;;;;;;5027133;28;20034;-79
2022/06/14 12:57:22;;;;;;;8.07;1.20;;;;;;;;;;5022158;28;20567;-79
2022/06/14 12:59:57;;;;;;;8.05;1.60;;;;;;;;;;5025873;28;20505;-79
2022/06/14 13:02:30;;;;;;;9.13;1.60;;;;;;;;;;5025549;28;20034;-79
2022/06/14 13:05:00;;;;;;;5.00;1.33;;;;;;;;;;5027219;28;20037;-79
2022/06/14 13:07:39;;;;;;;5.93;1.83;;;;;;;;;;5027473;28;20121;-79
2022/06/14 13:10:21;;;;;;;4.90;1.30;;;;;;;;;;5022715;28;20075;-79
2022/06/14 13:13:05;;;;;;;4.88;1.13;;;;;;;;;;5026369;28;20040;-79
2022/06/14 13:15:36;;;;;;;7.30;1.20;;;;;;;;;;5029096;28;20044;-79
2022/06/14 13:18:25;;;;;;;4.82;1.17;;;;;;;;;;5020898;28;20053;-79
2022/06/14 13:20:54;;;;;;;7.40;1.38;;;;;;;;;;5021115;28;20044;-79
2022/06/14 13:23:32;;;;;;;7.22;1.58;;;;;;;;;;5023728;28;20037;-79
2022/06/14 13:26:22;;;;;;;11.40;1.50;;;;;;;;;;5028870;28;20040;-78
2022/06/14 13:28:58;;;;;;;5.00;1.13;;;;;;;;;;5019601;28;20037;-79
2022/06/14 13:31:24;;;;;;;7.43;1.50;;;;;;;;;;5028318;28;20026;-79
2022/06/14 13:34:00;;;;;;;9.85;1.58;;;;;;;;;;5020358;28;20045;-78
2022/06/14 13:36:34;;;;;;;3.85;1.10;;;;;;;;;;5024204;28;20063;-79
2022/06/14 13:39:03;;;;;;;5.30;1.35;;;;;;;;;;5027835;28;20033;-79
2022/06/14 13:41:39;;;;;;;7.25;1.30;;;;;;;;;;5026244;28;20037;-79
2022/06/14 13:44:13;;;;;;;8.90;1.60;;;;;;;;;;5020543;28;20057;-79
2022/06/14 13:46:42;;;;;;;8.60;1.77;;;;;;;;;;5028472;28;20029;-78
2022/06/14 13:49:15;;;;;;;5.93;1.58;;;;;;;;;;5020011;28;20095;-79
2022/06/14 13:51:47;;;;;;;5.57;1.08;;;;;;;;;;5017987;28;20033;-79
2022/06/14 13:54:28;;;;;;;6.57;1.20;;;;;;;;;;5029122;28;20398;-79
2022/06/14 13:57:13;;;;;;;8.43;1.33;;;;;;;;;;5022672;28;20033;-79
2022/06/14 13:59:42;;;;;;;6.15;1.30;;;;;;;;;;5018797;28;20036;-79
2022/06/14 14:02:10;;;;;;;8.23;1.70;;;;;;;;;;5025882;28;20040;-79
2022/06/14 14:04:43;;;;;;;5.50;1.48;;;;;;;;;;5022265;28;20034;-79
2022/06/14 14:07:21;;;;;;;7.53;1.30;;;;;;;;;;5029296;28;20057;-79
2022/06/14 14:09:47;;;;;;;8.27;1.58;;;;;;;;;;5026794;28;20463;-79
2022/06/14 14:12:29;;;;;;;6.60;1.75;;;;;;;;;;5026619;28;20068;-79
2022/06/14 14:15:14;;;;;;;6.25;1.50;;;;;;;;;;5017491;28;20037;-79
2022/06/14 14:17:46;;;;;;;7.97;1.88;;;;;;;;;;5028877;28;20060;-79
2022/06/14 14:20:18;;;;;;;11.35;1.60;;;;;;;;;;5028302;28;20033;-79
2022/06/14 14:22:49;;;;;;;6.18;1.52;;;;;;;;;;5028219;28;20364;-79
2022/06/14 14:25:21;;;;;;;5.38;1.30;;;;;;;;;;5036074;28;20033;-79
2022/06/14 14:28:10;;;;;;;7.38;1.38;;;;;;;;;;5025783;28;20099;-79
2022/06/14 14:30:59;;;;;;;5.53;1.10;;;;;;;;;;5006111;28;20053;-79
2022/06/14 14:33:47;;;;;;;8.18;1.50;;;;;;;;;;5028437;28;20651;-79
2022/06/14 14:36:33;;;;;;;6.80;1.38;;;;;;;;;;5022610;28;20578;-79
2022/06/14 14:39:19;;;;;;;9.93;1.50;;;;;;;;;;5022201;28;20037;-79
2022/06/14 14:42:08;;;;;;;4.22;1.30;;;;;;;;;;5018066;28;20136;-79
2022/06/14 14:44:39;;;;;;;4.30;1.20;;;;;;;;;;5016438;28;20072;-79
2022/06/14 14:47:25;;;;;;;8.10;1.50;;;;;;;;;;5026746;28;20034;-79
2022/06/14 14:50:01;;;;;;;5.68;1.00;;;;;;;;;;5020381;28;20089;-79
2022/06/14 14:52:32;;;;;;;4.47;1.48;;;;;;;;;;5019035;28;20065;-79
2022/06/14 14:55:02;;;;;;;10.38;1.50;;;;;;;;;;5019711;28;20030;-79
2022/06/14 14:57:32;;;;;;;5.60;1.10;;;;;;;;;;5024502;28;20116;-79
2022/06/14 15:00:02;;;;;;;5.05;1.70;;;;;;;;;;5032437;28;20036;-79
2022/06/14 15:05:26;;;;;;;3.88;1.10;;;;;;;;;;5016498;28;20053;-80
2022/06/14 15:07:58;;;;;;;9.82;1.40;;;;;;;;;;5023008;28;20026;-79
2022/06/14 15:10:26;;;;;;;5.90;1.10;;;;;;;;;;5024682;28;20039;-79
2022/06/14 15:12:55;;;;;;;5.40;1.58;;;;;;;;;;5023743;28;20033;-79
2022/06/14 15:15:24;;;;;;;11.85;1.20;;;;;;;;;;5023930;28;20486;-79
2022/06/14 15:20:49;;;;;;;5.60;1.00;;;;;;;;;;5016930;28;20128;-79
2022/06/14 15:23:26;;;;;;;7.57;1.73;;;;;;;;;;5017665;28;20483;-80
2022/06/14 15:25:52;;;;;;;5.35;1.40;;;;;;;;;;5025129;28;20037;-79
2022/06/14 15:28:19;;;;;;;4.38;1.15;;;;;;;;;;5017917;28;20065;-79
2022/06/14 15:30:58;;;;;;;6.53;1.30;;;;;;;;;;5031893;28;20041;-79
2022/06/14 15:33:24;;;;;;;6.50;1.17;;;;;;;;;;5021827;28;20034;-79
2022/06/14 15:35:52;;;;;;;6.28;1.10;;;;;;;;;;5031680;28;20029;-79
2022/06/14 15:38:19;;;;;;;5.95;1.23;;;;;;;;;;5031826;28;20433;-79